Time;durP1;ratioP1;P1;durP2;ratioP2;P2;SDS_P1;SDS_P2;PMS_P1;PMS_P2;Temp;Humidity;BMP_temperature;BMP_pressure;BME280_temperature;BME280_humidity;BME280_pressure;Samples;Min_cycle;Max_cycle;Signal;HPM_P1;HPM_P2
2023/03/25 00:01:07;;;;;;;;;3.00;0.67;;;;;11.25;61.51;100627.50;5057532;28;45453;-43
2023/03/25 00:03:34;;;;;;;;;1.33;0.00;;;;;11.26;61.95;100650.47;5057552;28;45423;-45
2023/03/25 00:06:00;;;;;;;;;2.00;0.33;;;;;11.20;62.32;100645.75;5057922;28;45435;-43
2023/03/25 00:08:26;;;;;;;;;0.00;0.00;;;;;11.21;62.37;100652.75;5057379;28;46089;-44
2023/03/25 00:10:56;;;;;;;;;5.00;0.33;;;;;11.23;62.68;100651.59;5057458;28;45397;-43
2023/03/25 00:13:22;;;;;;;;;1.67;1.00;;;;;11.22;62.43;100652.59;5057650;28;45421;-43
2023/03/25 00:15:52;;;;;;;;;0.00;0.00;;;;;11.19;61.99;100660.88;5057507;28;45358;-43
2023/03/25 00:18:21;;;;;;;;;2.33;1.00;;;;;11.19;62.83;100660.06;5056908;28;46939;-43
2023/03/25 00:20:50;;;;;;;;;2.00;2.00;;;;;11.18;62.63;100653.91;5056989;28;45445;-44
2023/03/25 00:23:20;;;;;;;;;6.67;5.00;;;;;11.21;62.41;100663.41;5057277;28;45498;-44
2023/03/25 00:25:46;;;;;;;;;2.33;1.00;;;;;11.18;62.99;100664.53;5057348;28;45311;-45
2023/03/25 00:28:13;;;;;;;;;1.00;1.00;;;;;11.18;62.61;100667.22;5056811;28;47346;-43
2023/03/25 00:30:42;;;;;;;;;5.33;1.00;;;;;11.17;63.39;100667.38;5057171;28;45614;-44
2023/03/25 00:33:12;;;;;;;;;0.00;0.00;;;;;11.15;63.06;100656.84;5057105;28;45277;-43
2023/03/25 00:35:43;;;;;;;;;1.67;1.33;;;;;11.12;63.29;100651.81;5057360;28;45440;-43
2023/03/25 00:38:10;;;;;;;;;2.33;0.33;;;;;11.08;63.91;100655.81;5056935;28;45950;-45
2023/03/25 00:40:35;;;;;;;;;2.00;1.00;;;;;11.09;63.84;100665.47;5056644;28;45484;-43
2023/03/25 00:43:02;;;;;;;;;3.67;1.00;;;;;11.07;63.59;100656.78;5057090;28;45458;-43
2023/03/25 00:45:28;;;;;;;;;0.00;0.00;;;;;11.03;64.24;100663.41;5057385;28;45331;-45
2023/03/25 00:47:54;;;;;;;;;8.00;2.00;;;;;11.05;64.40;100664.09;5055618;28;45429;-45
2023/03/25 00:50:23;;;;;;;;;2.00;1.00;;;;;10.95;64.08;100652.66;5056695;28;45503;-44
2023/03/25 00:52:50;;;;;;;;;1.33;1.00;;;;;11.01;64.26;100656.56;5056800;28;45679;-44
2023/03/25 00:55:16;;;;;;;;;7.67;1.67;;;;;11.01;64.76;100665.38;5056848;28;45513;-44
2023/03/25 00:57:41;;;;;;;;;1.67;1.67;;;;;11.00;64.86;100653.06;5056399;28;46411;-43
2023/03/25 01:00:11;;;;;;;;;1.00;1.00;;;;;10.98;65.59;100661.19;5056670;28;45373;-44
2023/03/25 01:02:38;;;;;;;;;4.00;0.00;;;;;10.95;65.59;100655.31;5055837;28;45460;-43
2023/03/25 01:05:04;;;;;;;;;4.33;0.00;;;;;11.00;65.43;100658.41;5056503;28;45239;-43
2023/03/25 01:07:30;;;;;;;;;2.00;1.00;;;;;11.01;65.96;100656.56;5056057;28;45557;-43
2023/03/25 01:10:00;;;;;;;;;6.00;1.33;;;;;11.00;65.96;100658.41;5056508;28;45754;-43
2023/03/25 01:12:26;;;;;;;;;2.00;0.00;;;;;11.02;64.89;100656.41;5056645;28;45371;-44
2023/03/25 01:14:52;;;;;;;;;1.00;1.00;;;;;11.04;65.02;100657.09;5056622;28;45319;-43
2023/03/25 01:17:18;;;;;;;;;3.00;0.00;;;;;11.04;65.08;100657.09;5056073;28;47364;-43
2023/03/25 01:19:43;;;;;;;;;3.00;1.00;;;;;11.06;65.02;100647.13;5056228;28;45335;-44
2023/03/25 01:22:08;;;;;;;;;3.00;2.00;;;;;11.13;65.90;100666.00;5056351;28;45395;-44
2023/03/25 01:24:34;;;;;;;;;2.00;0.33;;;;;11.16;66.49;100668.34;5056717;28;45365;-43
2023/03/25 01:27:00;;;;;;;;;5.00;2.33;;;;;11.09;66.09;100646.84;5056121;28;45321;-43
2023/03/25 01:29:25;;;;;;;;;2.67;2.67;;;;;11.20;66.00;100667.03;5038341;28;45432;-44
2023/03/25 01:31:52;;;;;;;;;1.00;1.00;;;;;11.19;66.24;100663.56;5056565;28;45181;-44
2023/03/25 01:34:18;;;;;;;;;0.00;0.00;;;;;11.13;65.13;100650.03;5056220;28;45330;-44
2023/03/25 01:36:46;;;;;;;;;0.33;0.33;;;;;11.12;66.39;100658.97;5055857;28;47948;-44
2023/03/25 01:39:15;;;;;;;;;1.33;1.00;;;;;11.05;66.76;100656.09;5055865;28;45408;-45
2023/03/25 01:41:42;;;;;;;;;1.00;0.00;;;;;11.01;67.25;100649.41;5056021;28;45537;-45
2023/03/25 01:44:13;;;;;;;;;5.33;1.33;;;;;11.02;66.04;100640.44;5056190;28;45471;-44
2023/03/25 01:46:43;;;;;;;;;0.67;0.67;;;;;10.99;67.59;100635.41;5055777;28;46081;-44
2023/03/25 01:49:22;;;;;;;;;2.67;2.00;;;;;10.95;67.59;100642.84;5056190;28;45470;-43
2023/03/25 01:51:50;;;;;;;;;3.00;2.00;;;;;10.90;67.93;100638.97;5056290;28;45292;-45
2023/03/25 01:54:16;;;;;;;;;2.33;1.00;;;;;10.85;68.02;100630.63;5056547;28;45364;-43
2023/03/25 01:56:46;;;;;;;;;5.00;1.00;;;;;10.87;67.37;100623.31;5055934;28;46289;-43
2023/03/25 01:59:14;;;;;;;;;0.00;0.00;;;;;10.87;68.64;100623.31;5037893;28;45447;-44
2023/03/25 02:01:40;;;;;;;;;3.00;0.33;;;;;10.86;68.55;100624.31;5056043;28;45292;-44
2023/03/25 02:04:10;;;;;;;;;2.67;0.67;;;;;10.76;67.55;100610.25;5055981;28;45217;-43
2023/03/25 02:06:40;;;;;;;;;1.33;0.33;;;;;10.83;68.45;100625.47;5037668;28;46162;-43
2023/03/25 02:09:08;;;;;;;;;2.00;1.00;;;;;10.80;68.89;100611.63;5056032;28;45343;-42
2023/03/25 02:11:34;;;;;;;;;2.67;1.67;;;;;10.79;69.19;100620.56;5055842;28;45536;-44
2023/03/25 02:14:03;;;;;;;;;1.33;0.33;;;;;10.79;68.67;100625.88;5058415;28;45276;-44
2023/03/25 02:16:43;;;;;;;;;1.33;1.00;;;;;10.78;68.14;100629.53;5059492;28;48137;-43
2023/03/25 02:19:31;;;;;;;;;2.33;1.00;;;;;10.74;69.27;100623.69;5059237;28;45415;-43
2023/03/25 02:22:06;;;;;;;;;0.33;0.33;;;;;10.72;68.13;100621.19;5059282;28;45310;-45
2023/03/25 02:25:06;;;;;;;;;5.00;1.33;;;;;10.71;69.15;100614.19;5059570;28;45358;-46
2023/03/25 02:27:45;;;;;;;;;2.33;0.33;;;;;10.69;68.42;100607.34;5059196;28;47131;-43
2023/03/25 02:30:22;;;;;;;;;7.67;1.00;;;;;10.69;69.33;100607.34;5059124;28;45268;-45
2023/03/25 02:32:47;;;;;;;;;6.00;1.00;;;;;10.68;69.95;100605.69;5059330;28;45376;-44
2023/03/25 02:35:18;;;;;;;;;1.00;1.00;;;;;10.66;69.06;100605.84;5059160;28;45523;-43
2023/03/25 02:37:51;;;;;;;;;1.67;1.00;;;;;10.66;69.60;100607.63;5059155;28;47184;-44
2023/03/25 02:40:35;;;;;;;;;5.00;2.00;;;;;10.65;69.64;100596.16;5058781;28;45600;-44
2023/03/25 02:43:04;;;;;;;;;1.67;1.00;;;;;10.63;69.62;100595.50;5059070;28;45355;-44
2023/03/25 02:45:31;;;;;;;;;7.67;1.67;;;;;10.63;70.07;100595.50;5059071;28;45361;-42
2023/03/25 02:48:03;;;;;;;;;3.00;1.00;;;;;10.63;70.36;100598.16;5058988;28;46337;-45
2023/03/25 02:50:39;;;;;;;;;2.00;0.00;;;;;10.62;68.71;100593.81;5058858;28;45435;-44
2023/03/25 02:53:12;;;;;;;;;4.00;1.67;;;;;10.62;69.75;100593.81;5059046;28;45446;-43
2023/03/25 02:55:40;;;;;;;;;3.00;0.00;;;;;10.62;69.87;100596.47;5059144;28;45328;-44
2023/03/25 02:58:09;;;;;;;;;5.00;1.00;;;;;10.61;69.72;100588.63;5058563;28;46457;-44
2023/03/25 03:00:37;;;;;;;;;1.00;1.00;;;;;10.59;69.92;100599.44;5058731;28;45522;-43
2023/03/25 03:03:04;;;;;;;;;2.67;1.00;;;;;10.60;69.93;100601.09;5058886;28;45350;-44
2023/03/25 03:05:36;;;;;;;;;4.33;1.67;;;;;10.54;69.93;100585.75;5058956;28;45324;-43
2023/03/25 03:08:04;;;;;;;;;7.00;2.00;;;;;10.69;70.43;100594.88;5057736;28;45409;-45
2023/03/25 03:10:47;;;;;;;;;2.00;1.33;;;;;10.73;70.15;100604.22;5058657;28;45378;-43
2023/03/25 03:13:32;;;;;;;;;4.67;0.00;;;;;10.73;70.21;100598.91;5058840;28;45319;-43
2023/03/25 03:16:38;;;;;;;;;3.33;1.00;;;;;10.79;70.80;100594.81;5058782;28;45316;-44
2023/03/25 03:19:30;;;;;;;;;1.00;1.00;;;;;10.80;70.62;100606.28;5056927;28;48019;-44
2023/03/25 03:22:02;;;;;;;;;0.00;0.00;;;;;10.71;70.82;100589.41;5058599;28;45383;-44
2023/03/25 03:24:40;;;;;;;;;6.00;1.00;;;;;10.69;70.74;100581.56;5057421;28;45371;-45
2023/03/25 03:27:25;;;;;;;;;8.33;2.33;;;;;10.81;70.85;100603.47;5058623;28;45374;-43
2023/03/25 03:29:59;;;;;;;;;5.00;5.00;;;;;10.83;70.45;100597.97;5058088;28;46206;-44
2023/03/25 03:32:36;;;;;;;;;4.00;1.00;;;;;10.83;71.02;100603.31;5058441;28;45488;-43
2023/03/25 03:35:07;;;;;;;;;3.00;1.00;;;;;10.82;70.45;100609.63;5057789;28;45462;-43
2023/03/25 03:37:41;;;;;;;;;3.00;1.00;;;;;10.79;69.68;100596.63;5058508;28;45454;-44
2023/03/25 03:40:11;;;;;;;;;2.00;1.00;;;;;10.90;70.05;100615.88;5057865;28;46113;-45
2023/03/25 03:42:43;;;;;;;;;0.00;0.00;;;;;10.87;70.03;100594.03;5057918;28;45312;-45
2023/03/25 03:45:38;;;;;;;;;3.33;1.00;;;;;10.91;70.66;100608.72;5058150;28;45506;-43
2023/03/25 03:48:11;;;;;;;;;4.33;1.00;;;;;10.90;70.48;100605.22;5058272;28;45349;-41
2023/03/25 03:50:42;;;;;;;;;2.00;2.00;;;;;10.80;69.27;100596.50;5057783;28;47146;-41
2023/03/25 03:53:22;;;;;;;;;2.67;1.00;;;;;10.88;70.08;100611.69;5057959;28;45328;-42
2023/03/25 03:56:06;;;;;;;;;5.67;0.00;;;;;10.84;70.49;100603.19;5057981;28;45260;-41
2023/03/25 03:58:37;;;;;;;;;2.33;1.00;;;;;10.81;70.07;100607.97;5058110;28;45331;-42
2023/03/25 04:01:29;;;;;;;;;1.00;1.00;;;;;10.79;69.98;100613.44;5057478;28;46376;-43
2023/03/25 04:04:00;;;;;;;;;0.00;0.00;;;;;10.75;69.42;100609.41;4998852;28;45455;-42
2023/03/25 04:06:50;;;;;;;;;6.33;1.00;;;;;10.73;69.96;100600.72;5015612;28;45485;-43
2023/03/25 04:09:26;;;;;;;;;5.00;2.00;;;;;10.72;69.51;100615.03;5015820;28;45383;-42
2023/03/25 04:12:04;;;;;;;;;2.33;0.67;;;;;10.69;69.61;100613.50;5015242;28;46118;-43
2023/03/25 04:14:31;;;;;;;;;0.67;0.67;;;;;10.66;69.55;100619.13;5015100;28;45432;-43
2023/03/25 04:16:58;;;;;;;;;2.67;0.67;;;;;10.67;69.41;100630.59;5015581;28;45475;-43
2023/03/25 04:19:24;;;;;;;;;2.00;1.00;;;;;10.59;70.09;100609.25;5015698;28;45275;-44
2023/03/25 04:21:50;;;;;;;;;6.33;2.00;;;;;10.68;69.90;100617.16;5014714;28;46422;-43
2023/03/25 04:24:18;;;;;;;;;3.00;0.00;;;;;10.71;69.84;100610.69;5015221;28;45360;-43
2023/03/25 04:26:43;;;;;;;;;0.67;0.67;;;;;10.73;69.65;100622.84;5015296;28;45335;-42
2023/03/25 04:29:09;;;;;;;;;0.00;0.00;;;;;10.74;69.08;100616.56;5015500;28;45507;-43
2023/03/25 04:31:36;;;;;;;;;0.00;0.00;;;;;10.71;69.08;100619.50;5015003;28;46002;-43
2023/03/25 04:34:03;;;;;;;;;1.33;0.00;;;;;10.76;69.27;100615.56;5015040;28;45394;-43
2023/03/25 04:36:32;;;;;;;;;5.33;0.33;;;;;10.82;68.64;100630.91;5015243;28;45403;-43
2023/03/25 04:38:58;;;;;;;;;1.00;1.00;;;;;10.84;68.93;100637.78;5015107;28;45457;-42
2023/03/25 04:41:25;;;;;;;;;4.00;0.33;;;;;10.79;68.51;100616.09;5044929;28;46183;-43
2023/03/25 04:43:50;;;;;;;;;3.00;1.00;;;;;10.80;68.67;100633.75;5056391;28;45308;-42
2023/03/25 04:46:16;;;;;;;;;1.00;1.00;;;;;10.73;68.49;100622.84;5057265;28;45398;-42
2023/03/25 04:48:43;;;;;;;;;5.00;1.67;;;;;10.84;68.57;100661.72;5057345;28;45269;-44
2023/03/25 04:51:12;;;;;;;;;0.00;0.00;;;;;10.84;69.01;100650.25;5056700;28;46193;-42
2023/03/25 04:53:39;;;;;;;;;5.00;1.00;;;;;10.69;68.62;100640.09;5056833;28;45326;-43
2023/03/25 04:56:06;;;;;;;;;0.67;0.67;;;;;10.80;68.63;100656.84;5057347;28;45305;-44
2023/03/25 04:58:31;;;;;;;;;0.67;0.67;;;;;10.76;68.63;100666.94;5057184;28;45371;-44
2023/03/25 05:01:04;;;;;;;;;2.00;2.00;;;;;10.62;68.98;100649.69;5056992;28;45395;-43
2023/03/25 05:03:33;;;;;;;;;1.00;1.00;;;;;10.76;68.92;100668.78;5056868;28;45333;-44
2023/03/25 05:05:59;;;;;;;;;0.00;0.00;;;;;10.80;68.65;100652.38;5056712;28;45331;-43
2023/03/25 05:08:24;;;;;;;;;1.33;1.00;;;;;10.84;68.46;100660.88;5056986;28;45523;-44
2023/03/25 05:10:50;;;;;;;;;0.00;0.00;;;;;10.84;68.58;100666.22;5056674;28;46993;-44
2023/03/25 05:13:15;;;;;;;;;1.33;0.00;;;;;10.86;68.49;100665.06;5056443;28;45472;-42
2023/03/25 05:15:42;;;;;;;;;1.00;1.00;;;;;10.87;68.38;100671.22;5056962;28;45662;-43
2023/03/25 05:18:11;;;;;;;;;0.00;0.00;;;;;10.89;67.91;100680.72;5057051;28;45269;-41
2023/03/25 05:20:38;;;;;;;;;4.00;0.00;;;;;10.91;67.92;100678.78;5056289;28;45387;-42
2023/03/25 05:23:20;;;;;;;;;0.00;0.00;;;;;10.93;67.93;100675.94;5056504;28;45388;-43
2023/03/25 05:25:49;;;;;;;;;3.00;0.00;;;;;10.91;67.66;100677.91;5056601;28;45371;-42
2023/03/25 05:28:15;;;;;;;;;1.67;1.00;;;;;10.95;67.66;100671.28;5056530;28;45430;-42
2023/03/25 05:30:42;;;;;;;;;1.33;1.00;;;;;10.97;67.42;100693.28;5056442;28;45994;-42
2023/03/25 05:33:11;;;;;;;;;1.00;1.00;;;;;10.99;67.18;100683.31;5056260;28;45502;-42
2023/03/25 05:35:37;;;;;;;;;0.00;0.00;;;;;11.05;67.09;100689.88;5038252;28;45308;-44
2023/03/25 05:38:11;;;;;;;;;0.00;0.00;;;;;11.08;66.98;100674.44;5038703;28;45577;-42
2023/03/25 05:40:37;;;;;;;;;0.00;0.00;;;;;11.09;66.02;100694.75;5055907;28;46224;-42
2023/03/25 05:43:02;;;;;;;;;2.00;1.00;;;;;11.11;66.29;100708.72;5056150;28;45454;-43
2023/03/25 05:45:28;;;;;;;;;2.00;0.00;;;;;11.13;65.84;100706.78;5056410;28;45403;-42
2023/03/25 05:47:54;;;;;;;;;3.00;1.00;;;;;11.16;65.61;100718.94;5055950;28;45428;-42
2023/03/25 05:50:20;;;;;;;;;1.00;1.00;;;;;11.18;65.57;100720.47;5055890;28;47020;-43
2023/03/25 05:52:48;;;;;;;;;0.00;0.00;;;;;11.22;65.54;100710.34;5056186;28;45515;-43
2023/03/25 05:55:19;;;;;;;;;1.67;0.00;;;;;11.22;65.60;100713.00;5056221;28;45488;-43
2023/03/25 05:57:44;;;;;;;;;0.00;0.00;;;;;11.08;65.60;100706.41;5056358;28;45397;-43
2023/03/25 06:00:11;;;;;;;;;1.33;0.00;;;;;11.21;65.85;100722.00;5055986;28;45493;-44
2023/03/25 06:02:38;;;;;;;;;3.00;0.33;;;;;11.21;65.44;100736.16;5055930;28;45450;-43
2023/03/25 06:05:08;;;;;;;;;1.00;1.00;;;;;11.18;66.00;100731.13;5056116;28;45371;-44
2023/03/25 06:07:36;;;;;;;;;1.00;0.00;;;;;11.19;65.52;100729.28;5056082;28;45407;-44
2023/03/25 06:10:03;;;;;;;;;0.67;0.67;;;;;11.24;65.25;100722.50;5055685;28;46229;-43
2023/03/25 06:12:31;;;;;;;;;2.00;0.67;;;;;11.16;65.10;100718.94;5055846;28;45312;-43
2023/03/25 06:14:56;;;;;;;;;0.67;0.00;;;;;11.24;65.25;100741.16;5056000;28;45262;-43
2023/03/25 06:17:22;;;;;;;;;0.00;0.00;;;;;11.21;65.07;100735.31;5056036;28;45359;-43
2023/03/25 06:19:50;;;;;;;;;0.33;0.00;;;;;11.22;65.25;100756.44;5055864;28;46189;-44
2023/03/25 06:22:19;;;;;;;;;2.00;0.67;;;;;11.18;65.44;100749.75;5055448;28;45394;-43
2023/03/25 06:24:45;;;;;;;;;2.00;2.00;;;;;11.14;65.17;100752.88;5055711;28;45469;-43
2023/03/25 06:27:13;;;;;;;;;1.67;0.00;;;;;11.15;65.21;100759.84;5055941;28;45368;-42
2023/03/25 06:29:42;;;;;;;;;5.33;1.67;;;;;11.21;64.95;100754.78;5054699;28;45428;-43
2023/03/25 06:32:09;;;;;;;;;1.00;1.00;;;;;11.26;64.96;100759.66;5054646;28;45542;-43
2023/03/25 06:34:34;;;;;;;;;3.00;1.00;;;;;11.23;65.06;100770.59;5055592;28;45458;-44
2023/03/25 06:37:00;;;;;;;;;6.00;0.00;;;;;11.23;65.16;100783.91;5055725;28;45443;-43
2023/03/25 06:39:29;;;;;;;;;0.33;0.00;;;;;11.24;64.95;100767.78;5055460;28;47280;-43
2023/03/25 06:41:56;;;;;;;;;0.33;0.00;;;;;11.22;65.10;100775.09;5054687;28;45457;-43
2023/03/25 06:44:21;;;;;;;;;0.00;0.00;;;;;11.26;65.01;100774.78;5055638;28;45407;-44
2023/03/25 06:46:47;;;;;;;;;0.00;0.00;;;;;11.30;64.97;100781.50;5055776;28;45250;-43
2023/03/25 06:49:12;;;;;;;;;5.00;0.67;;;;;11.40;65.08;100784.91;5055680;28;45470;-43
2023/03/25 06:51:37;;;;;;;;;0.00;0.00;;;;;11.47;64.78;100776.19;5055251;28;45410;-42
2023/03/25 06:54:03;;;;;;;;;1.00;1.00;;;;;11.53;64.67;100788.03;5055357;28;45327;-43
2023/03/25 06:56:28;;;;;;;;;0.00;0.00;;;;;11.56;64.21;100787.75;5055810;28;45522;-43
2023/03/25 06:58:54;;;;;;;;;9.33;0.67;;;;;11.56;64.58;100785.09;5055228;28;45470;-43
2023/03/25 07:01:19;;;;;;;;;1.33;0.00;;;;;11.55;64.35;100777.25;5057769;28;45435;-43
2023/03/25 07:03:44;;;;;;;;;2.33;1.00;;;;;11.59;63.87;100784.78;5058613;28;45291;-41
2023/03/25 07:06:16;;;;;;;;;2.33;1.00;;;;;11.66;64.04;100793.81;5058841;28;45467;-44
2023/03/25 07:08:41;;;;;;;;;2.00;1.00;;;;;11.72;63.62;100789.72;5039720;28;47355;-42
2023/03/25 07:11:07;;;;;;;;;0.67;0.33;;;;;11.69;63.55;100784.69;5058333;28;45525;-44
2023/03/25 07:13:33;;;;;;;;;3.00;0.00;;;;;11.66;63.81;100788.50;5058143;28;45458;-42
2023/03/25 07:15:59;;;;;;;;;1.00;0.00;;;;;11.79;63.27;100788.09;5058774;28;45312;-42
2023/03/25 07:18:25;;;;;;;;;0.00;0.00;;;;;11.81;63.52;100799.47;5058403;28;46182;-43
2023/03/25 07:20:51;;;;;;;;;0.67;0.00;;;;;11.92;63.11;100799.25;5057856;28;45344;-42
2023/03/25 07:23:16;;;;;;;;;0.67;0.67;;;;;11.96;62.65;100797.13;5058499;28;45409;-43
2023/03/25 07:25:41;;;;;;;;;0.00;0.00;;;;;12.09;62.92;100791.38;5058580;28;45407;-43
2023/03/25 07:28:07;;;;;;;;;1.67;1.00;;;;;12.16;62.24;100806.59;5058126;28;47065;-42
2023/03/25 07:30:32;;;;;;;;;0.67;0.00;;;;;12.20;62.26;100793.81;5058356;28;45335;-42
2023/03/25 07:32:57;;;;;;;;;2.50;2.00;;;;;12.24;62.11;100792.50;5058583;28;45348;-44
2023/03/25 07:35:23;;;;;;;;;5.00;2.00;;;;;12.27;61.80;100805.53;5058479;28;45369;-42
2023/03/25 07:37:48;;;;;;;;;1.00;1.00;;;;;12.32;62.00;100803.22;5058102;28;45703;-43
2023/03/25 07:40:14;;;;;;;;;0.67;0.00;;;;;12.42;61.28;100803.13;5058117;28;45380;-43
2023/03/25 07:42:39;;;;;;;;;3.33;2.00;;;;;12.56;60.51;100810.56;5058057;28;45440;-44
2023/03/25 07:45:05;;;;;;;;;1.67;1.00;;;;;12.68;59.62;100813.75;5058480;28;45309;-43
2023/03/25 07:47:31;;;;;;;;;1.00;1.00;;;;;12.74;60.61;100815.81;5058048;28;46256;-46
2023/03/25 07:49:56;;;;;;;;;2.00;1.00;;;;;12.70;60.00;100817.13;5058061;28;45424;-44
2023/03/25 07:52:21;;;;;;;;;2.33;0.33;;;;;12.83;60.40;100820.19;5057509;28;45383;-44
2023/03/25 07:54:47;;;;;;;;;2.00;0.00;;;;;12.87;59.71;100824.22;5058114;28;45501;-44
2023/03/25 07:57:12;;;;;;;;;0.00;0.00;;;;;12.97;59.09;100824.94;5057971;28;46239;-44
2023/03/25 07:59:38;;;;;;;;;0.00;0.00;;;;;12.99;58.82;100833.63;5057865;28;45399;-43
2023/03/25 08:02:03;;;;;;;;;1.00;1.00;;;;;13.01;58.55;100803.25;5057970;28;45344;-44
2023/03/25 08:04:29;;;;;;;;;2.00;1.00;;;;;13.20;58.62;100837.72;5058054;28;45399;-45
2023/03/25 08:06:54;;;;;;;;;2.00;0.00;;;;;13.29;58.80;100834.09;5057543;28;47154;-42
2023/03/25 08:09:19;;;;;;;;;2.00;0.00;;;;;13.34;58.22;100825.59;5057877;28;45259;-44
2023/03/25 08:11:46;;;;;;;;;1.00;1.00;;;;;13.39;58.27;100840.13;5057431;28;45420;-44
2023/03/25 08:14:12;;;;;;;;;4.00;0.00;;;;;13.57;57.15;100853.41;5058076;28;45344;-45
2023/03/25 08:16:37;;;;;;;;;0.67;0.33;;;;;13.45;56.42;100838.66;5057471;28;46053;-44
2023/03/25 08:19:02;;;;;;;;;1.00;1.00;;;;;13.51;56.69;100851.38;5057651;28;45586;-44
2023/03/25 08:21:28;;;;;;;;;1.33;1.33;;;;;13.76;56.12;100857.59;5057858;28;45344;-43
2023/03/25 08:24:01;;;;;;;;;0.00;0.00;;;;;13.81;55.33;100849.91;5057444;28;45358;-44
2023/03/25 08:26:27;;;;;;;;;1.00;1.00;;;;;13.84;56.07;100835.38;5057565;28;45642;-44
2023/03/25 08:28:56;;;;;;;;;1.33;1.00;;;;;14.02;54.88;100857.47;5057295;28;45429;-44
2023/03/25 08:31:22;;;;;;;;;1.33;1.33;;;;;13.99;54.67;100852.47;5057461;28;45308;-43
2023/03/25 08:33:48;;;;;;;;;1.00;0.67;;;;;14.11;54.43;100866.31;5057635;28;45444;-43
2023/03/25 08:36:18;;;;;;;;;4.00;1.00;;;;;14.31;54.39;100862.31;5056762;28;46184;-43
2023/03/25 08:38:47;;;;;;;;;1.00;1.00;;;;;14.50;53.88;100849.63;5056366;28;45285;-41
2023/03/25 08:41:12;;;;;;;;;1.00;1.00;;;;;14.37;54.87;100855.47;5057079;28;45428;-43
2023/03/25 08:43:38;;;;;;;;;3.00;1.67;;;;;14.20;54.57;100855.47;5057298;28;45383;-44
2023/03/25 08:46:04;;;;;;;;;0.67;0.67;;;;;14.12;53.75;100858.16;5056777;28;46970;-44
2023/03/25 08:48:29;;;;;;;;;3.33;0.33;;;;;14.05;54.53;100857.13;5056976;28;45509;-46
2023/03/25 08:50:55;;;;;;;;;1.00;1.00;;;;;13.88;55.21;100855.44;5057162;28;45449;-44
2023/03/25 08:53:20;;;;;;;;;1.67;0.33;;;;;13.69;55.75;100868.13;5057136;28;45491;-45
2023/03/25 08:55:49;;;;;;;;;2.67;1.00;;;;;13.61;55.43;100875.28;5056847;28;46138;-44
2023/03/25 08:58:14;;;;;;;;;2.00;2.00;;;;;13.72;55.47;100870.47;5056706;28;45407;-44
2023/03/25 09:00:40;;;;;;;;;3.00;0.33;;;;;14.29;54.11;100863.50;5056929;28;45353;-44
2023/03/25 09:03:05;;;;;;;;;3.67;0.33;;;;;15.95;51.12;100859.91;5056974;28;45333;-46
2023/03/25 09:05:31;;;;;;;;;7.33;0.00;;;;;16.67;49.46;100867.50;5056836;28;46123;-43
2023/03/25 09:07:56;;;;;;;;;8.33;7.00;;;;;18.48;46.79;100861.34;5056672;28;45455;-43
2023/03/25 09:10:21;;;;;;;;;2.33;0.67;;;;;20.41;42.64;100861.91;5056655;28;45353;-44
2023/03/25 09:12:47;;;;;;;;;0.00;0.00;;;;;21.07;40.29;100852.91;5057049;28;45386;-44
2023/03/25 09:15:12;;;;;;;;;0.00;0.00;;;;;22.42;39.87;100836.50;5056560;28;45366;-43
2023/03/25 09:17:38;;;;;;;;;1.75;0.75;;;;;22.32;40.05;100845.13;5056699;28;45391;-44
2023/03/25 09:20:07;;;;;;;;;1.50;0.00;;;;;21.67;39.89;100861.59;5056470;28;45264;-42
2023/03/25 09:22:33;;;;;;;;;1.00;1.00;;;;;22.38;37.05;100844.25;5055701;28;45535;-44
2023/03/25 09:24:58;;;;;;;;;3.00;0.50;;;;;22.03;37.98;100862.00;5056290;28;46321;-55
2023/03/25 09:27:23;;;;;;;;;0.00;0.00;;;;;22.58;38.89;100860.31;5056301;28;45524;-42
2023/03/25 09:29:49;;;;;;;;;2.00;0.25;;;;;22.90;35.98;100860.25;5038670;28;45692;-43
2023/03/25 09:32:14;;;;;;;;;2.00;0.50;;;;;22.56;37.61;100850.75;5056447;28;45454;-46
2023/03/25 09:34:42;;;;;;;;;1.00;1.00;;;;;22.27;40.59;100863.09;5056258;28;45966;-45
2023/03/25 09:37:08;;;;;;;;;0.40;0.20;;;;;21.22;38.47;100868.84;5056043;28;45261;-45
2023/03/25 09:39:34;;;;;;;;;1.50;1.00;;;;;20.17;39.17;100876.03;5055315;28;45451;-44
2023/03/25 09:42:07;;;;;;;;;0.25;0.25;;;;;19.51;41.34;100883.94;5056656;28;45426;-44
2023/03/25 09:44:52;;;;;;;;;0.00;0.00;;;;;18.72;43.24;100884.38;5055755;28;46866;-46
2023/03/25 09:47:21;;;;;;;;;0.80;0.80;;;;;18.11;43.89;100882.16;5055762;28;45364;-44
2023/03/25 09:49:53;;;;;;;;;2.75;0.75;;;;;17.71;43.64;100887.09;5056241;28;45158;-44
2023/03/25 09:52:33;;;;;;;;;0.25;0.25;;;;;17.29;44.36;100893.22;5056254;28;45403;-44
2023/03/25 09:55:05;;;;;;;;;2.25;1.75;;;;;16.94;44.93;100893.78;5055876;28;47255;-46
2023/03/25 09:57:36;;;;;;;;;1.25;1.25;;;;;16.71;46.09;100892.97;5037918;28;45320;-43
2023/03/25 10:00:05;;;;;;;;;2.50;1.00;;;;;16.34;46.50;100894.63;5055978;28;45407;-43
2023/03/25 10:02:47;;;;;;;;;1.75;0.00;;;;;16.14;48.49;100907.75;5055962;28;45376;-45
2023/03/25 10:05:42;;;;;;;;;3.00;1.00;;;;;16.09;48.15;100909.28;5055799;28;46091;-47
2023/03/25 10:08:26;;;;;;;;;0.00;0.00;;;;;16.07;47.87;100919.34;5055138;28;45471;-46
2023/03/25 10:11:24;;;;;;;;;0.00;0.00;;;;;16.18;47.97;100913.56;5056144;28;45249;-43
2023/03/25 10:14:08;;;;;;;;;4.00;1.50;;;;;16.39;47.77;100927.19;5056144;28;45343;-44
2023/03/25 10:16:46;;;;;;;;;1.00;1.00;;;;;16.21;47.91;100927.47;5055569;28;46253;-43
2023/03/25 10:19:34;;;;;;;;;1.00;0.75;;;;;16.41;48.09;100930.50;5056100;28;45246;-45
2023/03/25 10:22:08;;;;;;;;;1.50;1.00;;;;;18.28;45.20;100923.13;5056132;28;45367;-44
2023/03/25 10:24:53;;;;;;;;;1.75;0.00;;;;;21.21;40.70;100906.94;5056247;28;45389;-45
2023/03/25 10:27:24;;;;;;;;;0.75;0.75;;;;;20.59;40.12;100911.81;5055670;28;45282;-43
2023/03/25 10:30:03;;;;;;;;;0.25;0.25;;;;;19.96;41.51;100922.13;5055450;28;45402;-46
2023/03/25 10:32:35;;;;;;;;;1.25;0.75;;;;;19.23;41.35;100919.94;5055878;28;45366;-44
2023/03/25 10:35:04;;;;;;;;;2.00;1.00;;;;;21.04;39.65;100907.41;5040099;28;45434;-45
2023/03/25 10:37:34;;;;;;;;;0.75;0.00;;;;;22.84;36.58;100908.06;5058992;28;47533;-44
2023/03/25 10:40:25;;;;;;;;;2.80;1.00;;;;;21.88;38.48;100917.31;5058854;28;45472;-43
2023/03/25 10:43:30;;;;;;;;;3.20;0.00;;;;;20.87;38.87;100898.09;5058881;28;45434;-43
2023/03/25 10:46:03;;;;;;;;;0.50;0.50;;;;;20.00;39.67;100905.28;5059000;28;45396;-45
2023/03/25 10:48:30;;;;;;;;;2.50;2.00;;;;;19.54;40.93;100908.66;5058623;28;46263;-43
2023/03/25 10:51:07;;;;;;;;;2.80;0.00;;;;;19.24;42.10;100915.38;5059027;28;45328;-43
2023/03/25 10:53:32;;;;;;;;;6.00;2.50;;;;;19.82;40.91;100911.28;5058838;28;45503;-44
2023/03/25 10:56:17;;;;;;;;;3.50;2.25;;;;;19.17;41.49;100915.31;5059155;28;45331;-44
2023/03/25 10:58:47;;;;;;;;;1.75;1.75;;;;;20.09;40.86;100905.94;5058686;28;45453;-43
2023/03/25 11:01:16;;;;;;;;;17.75;12.75;;;;;19.37;41.23;100913.56;5058571;28;45236;-43
2023/03/25 11:03:44;;;;;;;;;1.75;1.75;;;;;19.03;41.66;100898.25;5058900;28;45352;-44
2023/03/25 11:06:23;;;;;;;;;2.25;1.00;;;;;18.68;42.94;100908.13;5059028;28;45426;-45
2023/03/25 11:09:25;;;;;;;;;7.75;1.50;;;;;19.78;42.02;100917.28;5058247;28;46334;-43
2023/03/25 11:11:51;;;;;;;;;5.75;4.75;;;;;19.57;40.75;100910.13;4976645;28;45519;-45
2023/03/25 11:14:26;;;;;;;;;1.00;1.00;;;;;18.97;41.83;100906.31;4976868;28;45374;-43
2023/03/25 11:17:04;;;;;;;;;3.50;2.75;;;;;18.36;43.48;100912.22;4977047;28;45275;-45
2023/03/25 11:19:39;;;;;;;;;2.50;2.00;;;;;17.83;43.48;100907.16;4976719;28;47251;-44
2023/03/25 11:22:15;;;;;;;;;3.50;3.50;;;;;17.87;43.42;100916.50;4976258;28;45456;-43
2023/03/25 11:24:43;;;;;;;;;1.00;1.00;;;;;17.75;43.49;100918.03;4976555;28;45578;-44
2023/03/25 11:27:15;;;;;;;;;3.00;1.25;;;;;17.88;44.16;100911.97;4976855;28;45475;-43
2023/03/25 11:29:40;;;;;;;;;2.00;1.00;;;;;18.02;43.49;100935.28;4959929;28;46127;-43
2023/03/25 11:32:14;;;;;;;;;4.75;3.25;;;;;18.34;42.74;100920.50;4976477;28;45541;-50
2023/03/25 11:34:40;;;;;;;;;2.75;1.25;;;;;18.31;42.08;100874.25;4976631;28;45567;-42
2023/03/25 11:37:21;;;;;;;;;1.50;1.25;;;;;18.39;42.30;100925.31;4960367;28;45470;-42